Time;durP1;ratioP1;P1;durP2;ratioP2;P2;SDS_P1;SDS_P2;PMS_P1;PMS_P2;Temp;Humidity;BMP_temperature;BMP_pressure;BME280_temperature;BME280_humidity;BME280_pressure;Samples;Min_cycle;Max_cycle;Signal;HPM_P1;HPM_P2
2021/09/27 00:04:52;;;;;;;10.70;10.00;;;;;;;17.08;89.53;100101.94;10293021;28;20043;-70
2021/09/27 00:09:54;;;;;;;10.80;10.10;;;;;;;17.15;89.63;100102.47;10292404;28;20106;-70
2021/09/27 00:14:55;;;;;;;11.25;10.55;;;;;;;16.94;90.67;100107.19;10296330;28;20077;-70
2021/09/27 00:19:57;;;;;;;12.00;11.10;;;;;;;16.75;92.41;100114.50;10299335;28;20489;-70
2021/09/27 00:24:58;;;;;;;10.80;10.10;;;;;;;16.74;92.42;100100.38;10299054;28;20043;-70
2021/09/27 00:30:00;;;;;;;10.23;9.63;;;;;;;16.78;91.71;100104.56;10298917;28;20109;-70
2021/09/27 00:35:04;;;;;;;11.18;10.50;;;;;;;16.79;92.02;100102.75;10298518;28;20129;-70
2021/09/27 00:40:08;;;;;;;11.27;10.57;;;;;;;16.70;92.33;100108.56;10298457;28;20051;-70
2021/09/27 00:45:11;;;;;;;10.90;10.20;;;;;;;16.82;93.26;100108.75;10298199;28;20544;-70
2021/09/27 00:50:15;;;;;;;10.77;9.98;;;;;;;16.75;93.01;100118.00;10297876;28;20105;-70
2021/09/27 00:55:20;;;;;;;10.98;10.27;;;;;;;16.75;94.34;100117.16;10297727;28;20050;-71
2021/09/27 01:00:24;;;;;;;11.88;10.98;;;;;;;16.68;94.25;100115.72;10297431;28;20051;-70
2021/09/27 01:05:26;;;;;;;11.65;10.93;;;;;;;16.62;95.22;100123.09;10297125;28;20089;-70
2021/09/27 01:10:40;;;;;;;11.63;10.93;;;;;;;16.93;94.52;100120.56;10297012;28;20054;-70
2021/09/27 01:15:58;;;;;;;11.55;10.57;;;;;;;16.88;94.24;100132.31;10297382;28;20566;-70
2021/09/27 01:21:25;;;;;;;11.77;10.98;;;;;;;16.67;95.37;100129.94;10296512;28;20055;-70
2021/09/27 01:26:50;;;;;;;13.45;12.57;;;;;;;16.63;96.69;100142.53;10272271;28;20402;-70
2021/09/27 01:32:16;;;;;;;12.18;11.45;;;;;;;17.07;92.56;100161.31;10381580;22;20050;-73
2021/09/27 01:37:31;;;;;;;13.05;12.30;;;;;;;16.75;94.60;100147.19;10378108;28;20476;-74
2021/09/27 01:42:43;;;;;;;12.95;12.15;;;;;;;16.84;94.03;100162.63;10378272;28;20137;-74
2021/09/27 01:47:59;;;;;;;13.13;12.10;;;;;;;16.87;94.54;100153.63;10377532;28;20415;-73
2021/09/27 01:53:15;;;;;;;11.03;10.43;;;;;;;16.84;94.82;100159.97;10378657;28;20042;-73
2021/09/27 01:58:17;;;;;;;;;;;;;;;17.22;93.35;100164.94;10378927;28;20518;-73
2021/09/27 02:03:30;;;;;;;12.82;12.05;;;;;;;17.02;94.87;100167.84;10378161;28;19932;-73
2021/09/27 02:08:40;;;;;;;12.10;11.40;;;;;;;16.77;95.99;100166.53;10378230;28;20041;-73
2021/09/27 02:13:59;;;;;;;11.82;11.13;;;;;;;16.68;97.42;100163.50;10377885;28;20038;-73
2021/09/27 02:19:10;;;;;;;13.25;12.45;;;;;;;16.82;96.70;100168.94;10377068;28;20407;-71
2021/09/27 02:24:26;;;;;;;12.95;12.13;;;;;;;16.83;96.37;100173.34;10377731;28;20041;-71
2021/09/27 02:29:28;;;;;;;;;;;;;;;16.75;96.97;100180.84;10375357;28;20100;-71
2021/09/27 02:34:48;;;;;;;12.05;11.35;;;;;;;16.86;97.18;100197.03;10377641;28;19928;-71
2021/09/27 02:39:57;;;;;;;12.23;11.50;;;;;;;17.08;95.61;100204.66;10375963;28;20045;-72
2021/09/27 02:45:00;;;;;;;13.43;12.63;;;;;;;16.73;97.87;100203.97;10375784;28;20053;-72
2021/09/27 02:50:05;;;;;;;13.23;12.43;;;;;;;16.88;98.32;100205.78;10376249;28;20487;-72
2021/09/27 02:55:12;;;;;;;12.80;12.00;;;;;;;16.76;97.87;100206.47;10378447;28;20046;-71
2021/09/27 03:00:27;;;;;;;13.68;12.50;;;;;;;17.10;95.05;100205.47;10376053;28;20057;-71
2021/09/27 03:05:36;;;;;;;14.10;13.10;;;;;;;16.78;97.65;100210.75;10375864;28;20074;-71
2021/09/27 03:10:56;;;;;;;16.20;15.10;;;;;;;16.64;99.05;100216.78;10375873;28;20096;-72
2021/09/27 03:16:24;;;;;;;15.80;14.80;;;;;;;16.70;99.41;100214.72;10374856;28;20046;-74
2021/09/27 03:21:42;;;;;;;13.55;12.65;;;;;;;16.66;100.00;100208.72;10376864;28;20096;-73
2021/09/27 03:27:23;;;;;;;15.98;14.90;;;;;;;16.65;100.00;100210.53;10374739;28;20042;-72
2021/09/27 03:32:40;;;;;;;18.55;17.35;;;;;;;16.58;100.00;100213.59;10375331;28;20100;-72
2021/09/27 03:38:12;;;;;;;14.57;13.55;;;;;;;16.78;100.00;100209.91;10377181;28;20046;-73
2021/09/27 03:43:25;;;;;;;17.42;16.33;;;;;;;16.70;100.00;100210.28;10374946;28;20487;-75
2021/09/27 03:48:34;;;;;;;16.67;15.57;;;;;;;16.61;100.00;100216.94;10377519;28;20053;-74
2021/09/27 03:53:46;;;;;;;17.60;16.45;;;;;;;16.86;100.00;100197.88;10383387;28;20125;-73
2021/09/27 03:59:01;;;;;;;17.02;15.93;;;;;;;16.59;100.00;100194.06;10383574;28;20099;-73
2021/09/27 04:04:17;;;;;;;17.60;16.52;;;;;;;16.41;100.00;100195.91;10382201;28;20040;-73
2021/09/27 04:09:30;;;;;;;;;;;;;;;16.48;100.00;100201.75;10382840;28;20042;-73
2021/09/27 04:14:46;;;;;;;16.50;15.38;;;;;;;16.54;100.00;100209.38;10381992;28;19929;-73
2021/09/27 04:20:07;;;;;;;15.93;14.93;;;;;;;16.54;100.00;100209.38;10380982;28;20054;-73
2021/09/27 04:25:35;;;;;;;15.10;13.90;;;;;;;16.77;100.00;100214.31;10382239;28;20061;-73
2021/09/27 04:31:06;;;;;;;18.42;17.27;;;;;;;16.45;100.00;100201.91;10382484;28;20052;-72
2021/09/27 04:36:19;;;;;;;18.05;16.75;;;;;;;16.44;100.00;100195.75;10368598;28;20053;-73
2021/09/27 04:41:54;;;;;;;17.85;16.65;;;;;;;16.75;100.00;100191.47;10382614;28;20042;-73
2021/09/27 04:47:12;;;;;;;16.02;14.93;;;;;;;16.57;100.00;100188.00;10382045;28;20042;-74
2021/09/27 04:52:22;;;;;;;16.98;15.88;;;;;;;16.57;100.00;100188.84;10382146;28;20500;-73
2021/09/27 04:57:35;;;;;;;17.95;16.75;;;;;;;16.35;100.00;100183.84;10381971;28;20046;-73
2021/09/27 05:03:06;;;;;;;16.30;15.20;;;;;;;16.33;100.00;100203.41;10380317;28;20037;-72
2021/09/27 05:08:35;;;;;;;19.52;18.20;;;;;;;16.33;100.00;100217.53;10380060;28;20096;-72
2021/09/27 05:14:07;;;;;;;18.75;17.45;;;;;;;16.30;100.00;100214.19;10380595;28;20050;-73
2021/09/27 05:19:37;;;;;;;17.70;16.55;;;;;;;16.24;100.00;100210.06;10380719;28;20046;-73
2021/09/27 05:24:51;;;;;;;16.73;15.73;;;;;;;16.38;100.00;100219.97;10379637;28;20042;-74
2021/09/27 05:30:12;;;;;;;14.70;13.77;;;;;;;16.52;100.00;100216.56;10378656;28;20050;-75
2021/09/27 05:35:46;;;;;;;17.02;15.93;;;;;;;16.51;100.00;100233.41;10379316;28;20104;-74
2021/09/27 05:41:06;;;;;;;15.27;14.35;;;;;;;16.43;100.00;100223.22;10379241;28;20108;-74
2021/09/27 05:46:18;;;;;;;17.33;16.25;;;;;;;16.46;100.00;100222.19;10378970;28;20041;-74
2021/09/27 05:51:38;;;;;;;14.95;13.95;;;;;;;16.52;100.00;100232.50;10377897;28;20050;-75
2021/09/27 05:56:40;;;;;;;16.60;15.50;;;;;;;16.57;100.00;100226.00;10377524;28;20129;-74
2021/09/27 06:02:25;;;;;;;15.15;14.05;;;;;;;16.60;100.00;100219.66;10378061;28;20057;-74
2021/09/27 06:08:09;;;;;;;14.93;14.00;;;;;;;16.60;100.00;100214.34;10378060;28;20064;-75
2021/09/27 06:13:18;;;;;;;16.88;15.35;;;;;;;16.59;100.00;100212.63;10356796;28;20484;-76
2021/09/27 06:18:35;;;;;;;13.98;13.05;;;;;;;16.69;100.00;100211.22;10377837;28;20045;-74
2021/09/27 06:24:10;;;;;;;16.35;15.25;;;;;;;16.74;100.00;100219.81;10377287;28;20399;-74
2021/09/27 06:29:22;;;;;;;14.00;13.13;;;;;;;16.74;100.00;100216.31;10377390;28;20046;-75
2021/09/27 06:34:36;;;;;;;17.00;15.82;;;;;;;16.77;100.00;100218.78;10376944;28;20046;-74
2021/09/27 06:39:38;;;;;;;15.32;13.90;;;;;;;16.86;100.00;100208.50;10376953;28;20455;-74
2021/09/27 06:44:44;;;;;;;14.60;13.43;;;;;;;16.91;100.00;100197.66;10376105;28;20046;-74
2021/09/27 06:49:46;;;;;;;16.90;15.63;;;;;;;17.03;100.00;100196.09;10376017;28;20045;-75
2021/09/27 06:54:47;;;;;;;13.55;12.68;;;;;;;17.12;100.00;100185.81;10374491;28;20288;-75
2021/09/27 06:59:49;;;;;;;18.48;17.20;;;;;;;17.19;100.00;100182.84;10376807;28;20054;-75
2021/09/27 07:04:51;;;;;;;17.33;16.02;;;;;;;17.40;100.00;100173.63;10375696;28;20042;-74
2021/09/27 07:09:53;;;;;;;16.58;15.27;;;;;;;17.50;100.00;100169.50;10375748;28;20052;-75
2021/09/27 07:14:54;;;;;;;20.17;18.75;;;;;;;17.53;100.00;100169.31;10374716;28;20136;-75
2021/09/27 07:19:56;;;;;;;18.65;16.95;;;;;;;17.77;99.97;100171.50;10376230;28;20516;-75
2021/09/27 07:24:58;;;;;;;17.75;16.63;;;;;;;17.82;98.30;100180.06;10375583;28;20041;-75
2021/09/27 07:29:59;;;;;;;14.93;13.93;;;;;;;18.13;94.94;100177.28;10402448;23;20050;-72
2021/09/27 07:35:02;;;;;;;16.75;15.40;;;;;;;18.03;96.42;100183.25;10414953;28;20041;-72
2021/09/27 07:40:05;;;;;;;15.23;14.23;;;;;;;18.13;96.12;100179.06;10414716;28;20058;-72
2021/09/27 07:45:10;;;;;;;14.57;13.65;;;;;;;18.32;94.80;100182.31;10413978;28;20045;-72
2021/09/27 07:50:13;;;;;;;15.93;14.93;;;;;;;17.98;98.36;100182.69;10413698;28;20053;-72
2021/09/27 07:55:16;;;;;;;18.75;17.48;;;;;;;18.12;97.84;100172.06;10414077;28;20049;-73
2021/09/27 08:00:18;;;;;;;15.82;14.82;;;;;;;18.20;97.84;100169.78;10413620;28;20045;-73
2021/09/27 08:05:25;;;;;;;12.80;11.90;;;;;;;18.51;94.93;100166.09;10413468;28;20510;-71
2021/09/27 08:10:38;;;;;;;10.85;10.05;;;;;;;18.84;88.30;100167.59;10415556;28;20072;-71
2021/09/27 08:15:47;;;;;;;11.13;10.32;;;;;;;18.93;88.03;100171.47;10401586;28;20046;-71
2021/09/27 08:21:02;;;;;;;10.38;9.77;;;;;;;18.85;88.49;100172.81;10408803;28;20038;-72
2021/09/27 08:26:05;;;;;;;10.40;9.70;;;;;;;18.90;87.60;100175.16;10374917;28;20097;-73
2021/09/27 08:31:14;;;;;;;10.77;9.90;;;;;;;18.67;90.88;100179.28;10372865;28;20053;-73
2021/09/27 08:36:19;;;;;;;9.75;9.15;;;;;;;18.92;90.49;100180.41;10377599;28;20038;-73
2021/09/27 08:41:30;;;;;;;8.75;8.05;;;;;;;19.05;90.50;100184.00;10381666;28;20042;-72
2021/09/27 08:46:55;;;;;;;9.85;9.15;;;;;;;19.26;86.76;100181.78;10380021;28;20046;-73
2021/09/27 08:51:57;;;;;;;8.32;7.72;;;;;;;19.41;83.40;100183.41;10381105;28;20050;-73
2021/09/27 08:57:24;;;;;;;6.53;6.13;;;;;;;19.53;79.44;100185.28;10380660;28;20050;-73
2021/09/27 09:02:44;;;;;;;7.60;7.03;;;;;;;19.46;80.88;100191.09;10409519;28;20046;-73
2021/09/27 09:07:54;;;;;;;7.22;6.70;;;;;;;19.30;85.09;100191.25;10421416;28;20091;-74
2021/09/27 09:13:01;;;;;;;6.03;5.63;;;;;;;19.68;78.63;100185.22;10420249;28;20092;-73
2021/09/27 09:18:13;;;;;;;5.55;5.15;;;;;;;19.42;79.82;100183.28;10420376;28;20067;-73
2021/09/27 09:23:40;;;;;;;5.53;5.20;;;;;;;19.55;78.70;100194.00;10421588;28;20037;-73
2021/09/27 09:28:46;;;;;;;6.93;6.43;;;;;;;19.59;79.69;100192.84;10396088;28;20061;-73
2021/09/27 09:33:54;;;;;;;5.88;5.38;;;;;;;19.79;76.93;100190.69;10387408;28;20496;-72
2021/09/27 09:38:56;;;;;;;6.05;5.65;;;;;;;19.98;76.52;100185.81;10380237;28;20392;-73
2021/09/27 09:44:07;;;;;;;5.90;5.50;;;;;;;19.64;79.02;100197.91;10388227;28;20507;-73
2021/09/27 09:49:12;;;;;;;5.20;4.90;;;;;;;19.97;75.79;100194.78;10412925;28;20053;-73
2021/09/27 09:54:23;;;;;;;5.50;5.10;;;;;;;20.11;75.02;100194.69;10411107;28;20045;-73
2021/09/27 09:59:41;;;;;;;4.90;4.60;;;;;;;20.32;73.04;100194.16;10419865;28;20045;-72
2021/09/27 10:04:50;;;;;;;5.03;4.70;;;;;;;20.47;72.34;100195.75;10419528;28;20042;-72
2021/09/27 10:09:51;;;;;;;5.10;4.70;;;;;;;20.46;72.59;100198.56;10377424;28;20467;-72
2021/09/27 10:14:53;;;;;;;4.40;4.20;;;;;;;20.35;71.21;100196.63;10378085;28;20042;-72
2021/09/27 10:20:15;;;;;;;5.10;4.80;;;;;;;20.17;73.85;100191.59;10343307;28;20097;-72
2021/09/27 10:25:39;;;;;;;4.63;4.32;;;;;;;20.56;71.26;100180.94;10376167;28;20034;-71
2021/09/27 10:30:50;;;;;;;4.53;4.22;;;;;;;20.64;71.76;100183.94;10375676;28;20097;-72
2021/09/27 10:36:00;;;;;;;5.10;4.70;;;;;;;20.87;72.35;100177.78;10341414;28;20046;-71
2021/09/27 10:41:12;;;;;;;5.82;5.43;;;;;;;20.80;71.60;100179.16;10374533;28;20084;-71
2021/09/27 10:46:16;;;;;;;5.65;5.25;;;;;;;21.26;70.75;100170.50;10374818;28;20100;-71
2021/09/27 10:51:25;;;;;;;5.60;5.20;;;;;;;21.36;69.65;100171.53;10357996;28;20133;-71
2021/09/27 10:56:39;;;;;;;4.80;4.50;;;;;;;20.96;69.57;100172.75;10375616;28;20042;-71
2021/09/27 11:01:54;;;;;;;4.47;4.18;;;;;;;21.20;70.55;100181.63;10374877;28;20040;-71
2021/09/27 11:06:59;;;;;;;4.90;4.60;;;;;;;21.31;68.73;100170.16;10357960;28;20056;-71
2021/09/27 11:12:11;;;;;;;5.10;4.80;;;;;;;21.02;69.55;100167.78;10357702;28;20050;-71
2021/09/27 11:17:21;;;;;;;4.25;3.88;;;;;;;21.23;69.04;100175.22;10375585;28;20045;-71
2021/09/27 11:22:40;;;;;;;4.07;3.85;;;;;;;21.43;67.16;100171.94;10357261;28;20046;-71
2021/09/27 11:28:01;;;;;;;4.10;3.83;;;;;;;21.60;68.15;100165.31;10376053;28;20467;-71
2021/09/27 11:33:05;;;;;;;3.83;3.55;;;;;;;21.99;63.56;100161.41;10359066;28;20491;-71
2021/09/27 11:38:28;;;;;;;5.05;3.80;;;;;;;21.62;64.90;100166.06;10376854;28;20042;-71
2021/09/27 11:43:47;;;;;;;4.63;4.22;;;;;;;21.60;66.48;100158.16;10374774;28;20406;-71
2021/09/27 11:49:21;;;;;;;4.20;3.90;;;;;;;21.63;65.21;100154.38;10374167;28;20037;-70
2021/09/27 11:54:35;;;;;;;4.47;4.18;;;;;;;22.30;66.40;100138.47;10378367;28;20053;-70
2021/09/27 11:59:46;;;;;;;3.97;3.67;;;;;;;22.60;62.77;100135.19;10381750;28;20080;-71
2021/09/27 12:05:15;;;;;;;4.25;3.70;;;;;;;22.54;63.62;100133.03;10382589;28;20038;-71
2021/09/27 12:10:30;;;;;;;4.22;3.92;;;;;;;22.24;64.10;100130.94;10367993;28;20050;-72
2021/09/27 12:15:38;;;;;;;4.78;4.30;;;;;;;22.31;63.66;100126.81;10369895;28;20140;-71
2021/09/27 12:20:40;;;;;;;4.40;4.10;;;;;;;22.28;62.64;100116.34;10369225;28;20053;-71
2021/09/27 12:25:43;;;;;;;5.25;4.78;;;;;;;21.96;62.92;100117.97;10366426;28;20050;-70
2021/09/27 12:30:58;;;;;;;4.50;4.20;;;;;;;22.46;61.74;100119.38;10385356;28;20097;-70
2021/09/27 12:36:16;;;;;;;4.05;3.75;;;;;;;22.34;63.21;100117.69;10385224;28;20069;-70
2021/09/27 12:41:24;;;;;;;4.65;4.15;;;;;;;22.51;64.35;100121.69;10386038;28;20416;-71
2021/09/27 12:46:28;;;;;;;5.20;4.82;;;;;;;22.45;63.58;100119.53;10350769;28;20586;-71
2021/09/27 12:51:39;;;;;;;4.10;3.80;;;;;;;21.98;64.23;100110.69;10364358;28;20081;-72
2021/09/27 12:56:41;;;;;;;5.60;5.03;;;;;;;21.81;65.13;100110.16;10379809;28;20042;-72
2021/09/27 13:01:50;;;;;;;5.38;4.97;;;;;;;21.98;63.58;100116.88;10379803;28;20101;-72
2021/09/27 13:07:03;;;;;;;4.75;4.38;;;;;;;22.52;63.24;100110.00;10361955;28;20042;-70
2021/09/27 13:12:11;;;;;;;3.80;3.55;;;;;;;22.62;63.50;100117.19;10362882;28;20049;-70
2021/09/27 13:17:23;;;;;;;5.40;4.75;;;;;;;22.50;63.32;100115.50;10379295;28;20048;-69
2021/09/27 13:22:45;;;;;;;6.22;4.82;;;;;;;22.21;62.30;100100.88;10378454;28;20049;-70
2021/09/27 13:27:55;;;;;;;6.13;5.10;;;;;;;22.40;62.35;100106.47;10362380;28;20100;-70
2021/09/27 13:33:22;;;;;;;4.68;4.38;;;;;;;22.44;62.54;100099.88;10339098;23;20046;-72
2021/09/27 13:38:39;;;;;;;5.47;5.07;;;;;;;22.67;59.78;100104.25;10279083;28;20146;-72
2021/09/27 13:43:56;;;;;;;4.40;4.10;;;;;;;21.94;62.38;100104.72;10303626;28;20472;-73
2021/09/27 13:49:00;;;;;;;4.55;4.18;;;;;;;21.86;63.05;100101.78;10286715;28;20519;-72
2021/09/27 13:54:05;;;;;;;4.25;3.85;;;;;;;21.92;64.60;100102.16;10301524;28;20047;-72
2021/09/27 13:59:07;;;;;;;4.78;4.47;;;;;;;21.95;63.79;100098.38;10301839;28;20051;-73
2021/09/27 14:04:09;;;;;;;4.85;4.45;;;;;;;21.83;64.46;100099.38;10302436;28;20043;-72
2021/09/27 14:09:10;;;;;;;4.32;4.03;;;;;;;21.85;63.93;100100.09;10283977;28;20070;-72
2021/09/27 14:14:12;;;;;;;5.07;4.68;;;;;;;21.86;63.42;100091.06;10298263;28;20046;-73
2021/09/27 14:19:14;;;;;;;4.95;4.55;;;;;;;21.85;64.64;100092.91;10299026;28;20457;-72
2021/09/27 14:24:16;;;;;;;4.88;4.57;;;;;;;21.75;64.12;100099.94;10298319;28;20049;-77
2021/09/27 14:29:18;;;;;;;5.18;4.88;;;;;;;21.62;64.33;100108.06;10280176;28;20077;-73
2021/09/27 14:34:19;;;;;;;5.70;5.20;;;;;;;21.63;65.78;100104.41;10297206;28;20049;-73
2021/09/27 14:39:21;;;;;;;6.00;5.50;;;;;;;21.66;65.11;100106.00;10297446;28;20062;-74
2021/09/27 14:44:23;;;;;;;5.90;5.50;;;;;;;21.73;65.99;100119.75;10296979;28;20039;-73
2021/09/27 14:49:24;;;;;;;5.18;4.78;;;;;;;21.60;65.67;100110.00;10298201;28;20042;-73
2021/09/27 14:54:26;;;;;;;5.43;5.03;;;;;;;21.64;66.61;100113.28;10298539;28;20039;-73
2021/09/27 14:59:28;;;;;;;7.85;7.15;;;;;;;21.80;66.08;100111.16;10279873;28;20051;-74
2021/09/27 15:04:30;;;;;;;7.60;7.20;;;;;;;21.50;67.50;100116.16;10290991;28;20067;-72
2021/09/27 15:09:31;;;;;;;7.78;7.18;;;;;;;21.61;66.49;100117.06;10296242;28;20412;-74
2021/09/27 15:14:33;;;;;;;8.70;8.10;;;;;;;21.29;68.00;100127.47;10295791;28;20078;-75
2021/09/27 15:19:35;;;;;;;8.80;8.20;;;;;;;21.25;66.70;100123.34;10281791;28;20145;-72
2021/09/27 15:24:38;;;;;;;8.65;8.15;;;;;;;21.05;66.42;100124.81;10296526;28;20469;-75
2021/09/27 15:29:39;;;;;;;8.93;8.43;;;;;;;20.96;67.70;100122.81;10295720;28;20038;-74
2021/09/27 15:34:45;;;;;;;8.00;7.50;;;;;;;21.02;66.48;100119.69;10296110;28;20042;-73
2021/09/27 15:39:47;;;;;;;8.77;8.27;;;;;;;21.11;65.61;100124.34;10297263;28;20054;-74
2021/09/27 15:44:50;;;;;;;9.18;8.68;;;;;;;20.96;66.51;100130.84;10285709;28;20042;-73
2021/09/27 15:49:52;;;;;;;8.68;8.07;;;;;;;20.94;66.33;100131.91;10286296;28;20054;-74
2021/09/27 15:54:53;;;;;;;8.93;8.43;;;;;;;20.58;69.42;100118.44;10303450;28;20461;-73
2021/09/27 15:59:55;;;;;;;9.02;8.52;;;;;;;20.50;70.04;100127.97;10285634;28;20058;-73
2021/09/27 16:04:58;;;;;;;9.93;9.32;;;;;;;20.35;70.85;100136.06;10302832;28;20039;-74
2021/09/27 16:10:00;;;;;;;9.18;8.60;;;;;;;20.33;71.38;100132.66;10301228;28;20042;-73
2021/09/27 16:15:04;;;;;;;9.52;8.93;;;;;;;20.13;73.02;100142.06;10312257;28;20138;-74
2021/09/27 16:20:07;;;;;;;10.88;10.18;;;;;;;20.09;73.64;100145.91;10302113;28;20062;-74
2021/09/27 16:25:09;;;;;;;9.82;9.05;;;;;;;20.03;74.30;100150.81;10285731;28;20038;-73
2021/09/27 16:30:11;;;;;;;10.15;9.55;;;;;;;19.86;74.97;100159.97;10343193;28;20049;-74
2021/09/27 16:35:13;;;;;;;11.30;10.48;;;;;;;19.75;75.82;100166.06;10344305;28;20049;-73
2021/09/27 16:40:15;;;;;;;10.63;10.07;;;;;;;19.60;76.45;100167.03;10324186;28;20050;-73
2021/09/27 16:45:17;;;;;;;12.18;11.50;;;;;;;19.49;77.37;100177.59;10342785;28;20038;-73
2021/09/27 16:50:19;;;;;;;11.50;10.80;;;;;;;19.37;77.61;100184.56;10341896;28;20106;-73
2021/09/27 16:55:21;;;;;;;11.48;10.77;;;;;;;19.30;78.30;100183.25;10340482;28;20102;-73
2021/09/27 17:00:23;;;;;;;12.27;11.57;;;;;;;19.24;78.96;100189.84;10342293;28;20492;-73
2021/09/27 17:05:25;;;;;;;10.98;10.25;;;;;;;19.19;79.20;100181.28;10304578;28;20030;-74
2021/09/27 17:10:26;;;;;;;12.77;12.10;;;;;;;19.13;79.93;100182.56;10332543;28;20038;-74
2021/09/27 17:20:51;;;;;;;11.80;11.10;;;;;;;19.16;79.76;100187.66;10300522;28;20050;-72
2021/09/27 17:26:09;;;;;;;12.90;11.90;;;;;;;19.27;80.35;100192.31;10300320;28;20090;-73
2021/09/27 17:31:15;;;;;;;13.10;11.82;;;;;;;19.12;80.62;100190.63;10300146;28;20412;-74
2021/09/27 17:36:19;;;;;;;14.75;13.95;;;;;;;19.08;81.26;100189.13;10301436;28;20075;-74
2021/09/27 17:41:21;;;;;;;14.63;13.63;;;;;;;18.93;82.36;100188.31;10302348;28;20051;-73
2021/09/27 17:46:24;;;;;;;12.52;11.85;;;;;;;18.88;81.71;100199.25;10303636;28;20132;-74
2021/09/27 17:51:26;;;;;;;13.70;12.90;;;;;;;18.78;83.04;100197.28;10301279;28;20050;-74
2021/09/27 17:56:28;;;;;;;11.65;11.05;;;;;;;18.75;82.84;100193.00;10300837;28;20043;-73
2021/09/27 18:01:30;;;;;;;14.73;13.88;;;;;;;18.93;84.20;100193.63;10283552;28;20098;-73
2021/09/27 18:06:37;;;;;;;14.47;13.57;;;;;;;18.85;84.85;100203.91;10284038;28;20054;-73
2021/09/27 18:11:40;;;;;;;13.63;12.82;;;;;;;18.83;85.20;100200.50;10301054;28;20282;-74
2021/09/27 18:16:41;;;;;;;16.02;14.90;;;;;;;18.90;85.13;100201.81;10299633;28;20047;-73
2021/09/27 18:21:43;;;;;;;15.75;14.65;;;;;;;18.76;85.18;100215.16;10282295;28;20050;-75
2021/09/27 18:26:45;;;;;;;13.68;12.77;;;;;;;18.74;84.70;100209.94;10268555;28;20068;-73
2021/09/27 18:31:48;;;;;;;15.10;14.20;;;;;;;18.62;85.33;100213.31;10298937;28;20099;-73
2021/09/27 18:36:49;;;;;;;14.07;13.38;;;;;;;18.40;86.82;100211.97;10282075;28;20053;-74
2021/09/27 18:41:51;;;;;;;13.43;12.52;;;;;;;18.39;86.20;100210.28;10299140;28;20068;-73
2021/09/27 18:46:53;;;;;;;14.60;13.80;;;;;;;18.39;85.92;100212.09;10265371;28;20046;-73
2021/09/27 18:51:54;;;;;;;14.18;13.38;;;;;;;18.28;86.99;100212.75;10265859;28;20131;-73
2021/09/27 18:56:56;;;;;;;16.38;15.30;;;;;;;18.48;88.53;100214.19;10299718;28;20054;-73
2021/09/27 19:01:58;;;;;;;17.42;16.25;;;;;;;18.49;88.00;100210.56;10300216;28;20401;-73
2021/09/27 19:06:59;;;;;;;15.27;14.30;;;;;;;18.41;88.36;100221.66;10299885;28;20050;-74
2021/09/27 19:12:01;;;;;;;15.80;14.73;;;;;;;18.37;88.38;100222.84;10283141;28;20055;-74
2021/09/27 19:17:03;;;;;;;15.88;14.75;;;;;;;18.23;88.65;100233.44;10281812;28;20050;-74
2021/09/27 19:22:05;;;;;;;15.85;14.95;;;;;;;18.13;89.20;100225.16;10298542;28;20047;-74
2021/09/27 19:27:07;;;;;;;15.77;14.77;;;;;;;18.14;88.33;100234.84;10299151;28;20093;-74
2021/09/27 19:32:09;;;;;;;16.67;15.68;;;;;;;18.10;88.49;100237.78;10329008;23;20105;-68
2021/09/27 19:37:11;;;;;;;17.00;15.45;;;;;;;18.08;88.79;100242.34;10372429;28;20038;-68
2021/09/27 19:42:14;;;;;;;16.23;15.23;;;;;;;18.19;87.51;100241.69;10372501;28;20412;-68
2021/09/27 19:47:17;;;;;;;14.57;13.68;;;;;;;18.26;86.12;100238.59;10372974;28;20050;-68
2021/09/27 19:52:19;;;;;;;16.63;15.70;;;;;;;18.15;86.39;100249.03;10372734;28;20557;-69
2021/09/27 19:57:20;;;;;;;16.02;15.02;;;;;;;18.25;85.01;100254.66;10373293;28;20435;-69
2021/09/27 20:02:22;;;;;;;13.10;12.30;;;;;;;18.31;83.00;100248.94;10355111;28;20519;-69
2021/09/27 20:07:23;;;;;;;14.82;13.93;;;;;;;18.35;82.03;100254.00;10373923;28;20080;-70
2021/09/27 20:12:25;;;;;;;12.75;11.95;;;;;;;18.39;81.41;100252.84;10371716;28;20101;-67
2021/09/27 20:17:26;;;;;;;13.30;12.50;;;;;;;18.40;81.10;100251.03;10372383;28;20100;-68
2021/09/27 20:22:28;;;;;;;12.90;12.20;;;;;;;18.28;81.67;100247.34;10373213;28;20054;-68
2021/09/27 20:27:30;;;;;;;12.43;11.73;;;;;;;18.12;82.83;100259.84;10371967;28;20050;-67
2021/09/27 20:32:32;;;;;;;12.30;11.55;;;;;;;18.01;83.43;100259.59;10376994;28;20046;-68
2021/09/27 20:37:33;;;;;;;12.35;11.55;;;;;;;18.04;83.77;100257.63;10379938;28;20050;-68
2021/09/27 20:42:35;;;;;;;13.65;12.73;;;;;;;17.95;84.66;100258.16;10379007;28;20458;-68
2021/09/27 20:47:37;;;;;;;12.60;11.90;;;;;;;17.90;85.09;100266.41;10378739;28;20046;-68
2021/09/27 20:52:38;;;;;;;13.43;12.68;;;;;;;17.88;85.22;100265.66;10377190;28;20077;-68
2021/09/27 20:57:40;;;;;;;14.02;13.23;;;;;;;17.84;85.95;100264.13;10378188;28;20100;-68
2021/09/27 21:02:41;;;;;;;14.88;13.98;;;;;;;17.85;86.31;100264.97;10378649;28;20407;-69
2021/09/27 21:07:44;;;;;;;14.90;14.02;;;;;;;18.02;86.80;100261.34;10378260;28;20052;-68
2021/09/27 21:12:46;;;;;;;15.77;14.73;;;;;;;17.84;87.86;100273.88;10378064;28;20041;-68
2021/09/27 21:17:49;;;;;;;17.15;16.15;;;;;;;17.79;88.37;100273.28;10378595;28;20100;-68
2021/09/27 21:22:52;;;;;;;16.25;15.15;;;;;;;17.61;88.88;100273.38;10376504;28;20045;-69
2021/09/27 21:27:54;;;;;;;16.42;15.35;;;;;;;17.69;89.20;100285.38;10359745;28;20081;-69
2021/09/27 21:32:57;;;;;;;16.00;15.00;;;;;;;17.44;90.11;100277.94;10377178;28;20046;-68
2021/09/27 21:37:59;;;;;;;16.42;15.25;;;;;;;17.43;90.10;100279.75;10378071;28;20558;-68
2021/09/27 21:43:01;;;;;;;18.17;16.40;;;;;;;17.45;89.53;100280.53;10376464;28;20128;-68
2021/09/27 21:48:03;;;;;;;16.38;15.38;;;;;;;17.19;90.77;100291.75;10377464;28;20170;-68
2021/09/27 21:53:05;;;;;;;15.63;14.65;;;;;;;17.12;90.20;100293.88;10377289;28;20056;-68
2021/09/27 21:58:07;;;;;;;13.30;12.48;;;;;;;17.10;88.88;100288.66;10375571;28;20045;-68
2021/09/27 22:03:08;;;;;;;13.40;12.50;;;;;;;17.05;88.30;100293.34;10360293;28;20111;-68
2021/09/27 22:08:15;;;;;;;13.02;12.23;;;;;;;16.92;89.10;100299.41;10376496;28;20491;-68
2021/09/27 22:13:18;;;;;;;12.45;11.57;;;;;;;16.89;88.61;100301.28;10358603;28;20053;-68
2021/09/27 22:18:21;;;;;;;13.02;12.23;;;;;;;16.80;89.15;100299.13;10375821;28;20077;-68
2021/09/27 22:23:24;;;;;;;13.05;12.23;;;;;;;16.76;89.46;100305.53;10374527;28;20045;-68
2021/09/27 22:28:26;;;;;;;12.05;11.35;;;;;;;16.72;90.30;100308.41;10375612;28;20053;-68
2021/09/27 22:33:27;;;;;;;14.18;13.25;;;;;;;16.65;90.96;100308.72;10374230;28;20511;-68
2021/09/27 22:38:29;;;;;;;15.10;14.20;;;;;;;16.70;90.98;100304.97;10376021;28;20100;-68
2021/09/27 22:43:30;;;;;;;14.43;13.57;;;;;;;16.63;91.51;100304.44;10375442;28;20049;-68
2021/09/27 22:48:32;;;;;;;14.43;13.52;;;;;;;16.65;91.14;100298.13;10375594;28;20045;-68
2021/09/27 22:53:34;;;;;;;14.25;13.25;;;;;;;16.94;90.42;100295.72;10373707;28;20353;-68
2021/09/27 22:58:35;;;;;;;15.18;13.80;;;;;;;16.79;90.93;100296.56;10374934;28;20081;-68
2021/09/27 23:03:37;;;;;;;13.32;12.52;;;;;;;16.98;89.86;100302.59;10374554;28;20038;-68
2021/09/27 23:08:38;;;;;;;14.20;13.30;;;;;;;16.77;90.05;100291.31;10374724;28;20049;-68
2021/09/27 23:13:40;;;;;;;13.68;12.88;;;;;;;16.68;91.30;100306.84;10374425;28;20129;-68
2021/09/27 23:18:42;;;;;;;12.82;12.13;;;;;;;16.61;91.64;100311.63;10374958;28;20045;-68
2021/09/27 23:23:43;;;;;;;15.20;13.80;;;;;;;16.50;92.37;100320.13;10374991;28;20054;-68